aviador You're here:

KOKK Decoded Metar

KOKOMO in IN, USA
Report Time2018-02-22 13:56:00
UTC Time2018-02-22 14:58:25
Flight Rules ifr IFR
Wind060° at 13 kt
W.Decomp.*RWY 05: 12.7 kt HW 2.7 kt RCW
RWY 14: 2.7 kt HW 12.7 kt LCW
W.Rank060° ranks 30
Current wind is above 060° avg. (7.6)
Visibility9999 m
Phenomena:N/A
Clouds:Broken 008 Hf
Overcast 095 Hf
Expected CloudBase > 400 ft AGL from Temp-Dew spread
Ceiling800 ft
Temp01°C (ISA -12)
Dew Point00°C (93% RH)
AAT-5.7°C
QNH1033 hPa
Density Alt-1,263 ft
Elevation830 ft
Report Wrong Elevation
Raw Report
KOKK 221356Z AUTO 06013KT 10SM BKN008 OVC095 01/00 A3050 RMK AO2
RAE29UPB29E43 CIG 006V015 SLP339 P0001 T00110000 FZRANO=

Extra information for KOKK:More info

Metar Taf Metar & Taf Last 4 Metars F.Rules Stats Wind Profile Meteogram Temp Stats Airport Information Weather charts Add Link Nearby VenuesMetar ALERT Operation Metar Decoded Social comments

AIRNAV info for KOKK